createdAt,value
2019-02-21T00:01:02.406Z,5.30
2019-02-21T00:03:39.927Z,5.30
2019-02-21T00:06:17.410Z,5.30
2019-02-21T00:08:55.061Z,5.30
2019-02-21T00:11:32.553Z,5.30
2019-02-21T00:14:10.050Z,5.20
2019-02-21T00:16:47.536Z,5.20
2019-02-21T00:19:25.125Z,5.20
2019-02-21T00:22:02.627Z,5.20
2019-02-21T00:24:40.200Z,5.20
2019-02-21T00:27:19.143Z,5.20
2019-02-21T00:30:12.892Z,5.10
2019-02-21T00:32:50.398Z,5.10
2019-02-21T00:35:27.901Z,5.10
2019-02-21T00:38:08.745Z,5.00
2019-02-21T00:40:46.222Z,5.00
2019-02-21T00:43:23.769Z,4.90
2019-02-21T00:46:01.272Z,4.90
2019-02-21T00:48:39.078Z,4.90
2019-02-21T00:51:16.563Z,4.90
2019-02-21T00:53:54.066Z,4.90
2019-02-21T00:56:31.541Z,4.90
2019-02-21T00:59:12.375Z,4.80
2019-02-21T01:01:49.883Z,4.80
2019-02-21T01:04:27.391Z,4.80
2019-02-21T01:07:04.883Z,4.80
2019-02-21T01:09:48.779Z,4.80
2019-02-21T01:12:26.275Z,4.80
2019-02-21T01:15:03.797Z,4.90
2019-02-21T01:17:41.323Z,4.90
2019-02-21T01:20:18.847Z,5.00
2019-02-21T01:22:56.345Z,5.00
2019-02-21T01:25:33.846Z,5.10
2019-02-21T01:28:14.502Z,5.20
2019-02-21T01:30:57.076Z,5.20
2019-02-21T01:33:29.495Z,5.20
2019-02-21T01:36:06.986Z,5.30
2019-02-21T01:38:54.913Z,5.40
2019-02-21T01:41:32.418Z,5.40
2019-02-21T01:44:09.975Z,5.50
2019-02-21T01:46:47.470Z,5.50
2019-02-21T01:49:25.070Z,5.60
2019-02-21T01:52:02.568Z,5.60
2019-02-21T01:54:40.092Z,5.60
2019-02-21T01:57:17.580Z,5.70
2019-02-21T01:59:56.182Z,5.70
2019-02-21T02:02:33.659Z,5.80
2019-02-21T02:05:11.422Z,5.80
2019-02-21T05:01:08.318Z,6.50
2019-02-21T05:03:45.803Z,6.60
2019-02-21T05:06:23.309Z,6.60
2019-02-21T05:09:04.326Z,6.70
2019-02-21T05:11:41.841Z,6.70
2019-02-21T05:14:19.331Z,6.80
2019-02-21T05:17:06.839Z,6.80
2019-02-21T05:19:44.344Z,6.80
2019-02-21T05:22:21.856Z,6.80
2019-02-21T05:24:59.395Z,6.90
2019-02-21T05:27:54.187Z,6.90
2019-02-21T05:30:31.730Z,6.90
2019-02-21T05:33:27.843Z,6.90
2019-02-21T05:36:20.881Z,6.90
2019-02-21T05:39:26.674Z,6.90
2019-02-21T05:42:31.263Z,6.90
2019-02-21T05:45:30.387Z,6.90
2019-02-21T05:48:42.848Z,6.90
2019-02-21T05:51:32.348Z,7.00
2019-02-21T05:54:28.484Z,7.00
2019-02-21T05:57:24.735Z,7.00
2019-02-21T06:00:10.366Z,7.00
2019-02-21T06:02:56.378Z,7.00
2019-02-21T06:05:52.581Z,7.00
2019-02-21T06:08:49.745Z,7.00
2019-02-21T06:11:34.952Z,7.00
2019-02-21T06:14:38.138Z,7.00
2019-02-21T06:17:34.146Z,7.10
2019-02-21T06:20:40.331Z,7.10
2019-02-21T06:23:41.324Z,7.10
2019-02-21T06:26:26.355Z,7.20
2019-02-21T06:29:25.563Z,7.20
2019-02-21T06:32:13.576Z,7.30
2019-02-21T06:34:40.564Z,7.40
2019-02-21T06:37:37.963Z,7.40
2019-02-21T06:40:15.090Z,7.50
2019-02-21T06:42:52.616Z,7.50
2019-02-21T06:45:30.121Z,7.60
2019-02-21T06:48:11.012Z,7.60
2019-02-21T06:50:48.515Z,7.70
2019-02-21T06:53:26.014Z,7.70
2019-02-21T06:56:03.520Z,7.80
2019-02-21T06:58:50.496Z,7.80
2019-02-21T07:01:29.551Z,7.90
2019-02-21T07:04:05.489Z,8.10
2019-02-21T07:06:43.090Z,8.10
2019-02-21T07:09:20.588Z,8.20
2019-02-21T07:11:58.112Z,8.10
2019-02-21T07:14:35.611Z,8.20
2019-02-21T07:17:23.077Z,8.20
2019-02-21T07:20:00.579Z,8.20
2019-02-21T07:22:38.083Z,8.20
2019-02-21T07:25:26.166Z,8.20
2019-02-21T07:28:12.586Z,8.20
2019-02-21T07:30:47.463Z,8.20
2019-02-21T07:33:28.737Z,8.20
2019-02-21T07:36:02.453Z,8.30
2019-02-21T07:38:39.987Z,8.30
2019-02-21T07:41:18.710Z,8.40
2019-02-21T07:43:54.985Z,8.50
2019-02-21T07:46:32.616Z,8.50
2019-02-21T07:49:10.094Z,8.60
2019-02-21T07:51:47.640Z,8.70
2019-02-21T07:54:25.110Z,8.80
2019-02-21T07:57:16.078Z,8.80
2019-02-21T07:59:53.566Z,8.90
2019-02-21T08:02:31.137Z,8.90
2019-02-21T08:05:08.980Z,9.00
2019-02-21T08:07:56.885Z,9.20
2019-02-21T08:10:34.369Z,9.40
2019-02-21T08:13:11.854Z,9.50
2019-02-21T08:15:49.348Z,9.70
2019-02-21T08:18:28.921Z,9.80
2019-02-21T08:21:06.412Z,9.90
2019-02-21T08:23:50.687Z,9.90
2019-02-21T08:26:26.090Z,9.90
2019-02-21T08:29:06.023Z,10.00
2019-02-21T08:31:41.085Z,10.00
2019-02-21T08:34:22.597Z,10.00
2019-02-21T08:37:10.375Z,10.10
2019-02-21T08:39:47.860Z,10.10
2019-02-21T08:42:25.388Z,10.20
2019-02-21T08:45:02.900Z,10.10
2019-02-21T08:47:53.620Z,10.10
2019-02-21T08:50:31.119Z,9.90
2019-02-21T08:53:08.637Z,9.80
2019-02-21T08:55:46.115Z,9.70
2019-02-21T08:58:23.620Z,9.70
2019-02-21T09:01:01.107Z,9.70
2019-02-21T09:03:38.606Z,9.70
2019-02-21T09:06:16.177Z,9.80
2019-02-21T09:08:53.683Z,10.00
2019-02-21T09:11:31.172Z,10.20
2019-02-21T09:14:08.665Z,10.40
2019-02-21T09:16:46.239Z,10.60
2019-02-21T09:19:23.743Z,10.80
2019-02-21T09:22:01.253Z,10.90
2019-02-21T09:24:42.144Z,11.00
2019-02-21T09:27:16.346Z,11.00
2019-02-21T09:29:53.845Z,11.00
2019-02-21T09:32:31.343Z,10.90
2019-02-21T09:35:08.889Z,10.80
2019-02-21T09:37:46.511Z,10.80
2019-02-21T09:40:23.988Z,10.80
2019-02-21T09:43:01.480Z,10.70
2019-02-21T09:45:38.989Z,10.70
2019-02-21T09:48:16.528Z,10.70
2019-02-21T09:50:54.022Z,10.60
2019-02-21T09:53:31.518Z,10.60
2019-02-21T09:56:14.361Z,10.60
2019-02-21T09:58:51.896Z,10.70
2019-02-21T10:01:29.375Z,10.70
2019-02-21T10:04:06.876Z,10.80
2019-02-21T10:06:47.605Z,10.90
2019-02-21T10:09:25.122Z,11.00
2019-02-21T10:12:02.597Z,11.20
2019-02-21T10:14:40.112Z,11.30
2019-02-21T10:17:24.143Z,11.40
2019-02-21T10:20:04.112Z,11.50
2019-02-21T10:22:39.147Z,11.60
2019-02-21T10:25:23.434Z,11.80
2019-02-21T10:28:00.736Z,11.90
2019-02-21T10:30:38.213Z,12.00
2019-02-21T10:33:15.721Z,12.20
2019-02-21T10:35:53.318Z,12.30
2019-02-21T10:38:30.818Z,12.40
2019-02-21T10:41:08.928Z,12.40
2019-02-21T10:43:45.804Z,12.40
2019-02-21T10:46:23.414Z,12.40
2019-02-21T10:49:00.946Z,12.20
2019-02-21T10:51:38.460Z,12.10
2019-02-21T10:54:15.971Z,12.10
2019-02-21T10:56:53.548Z,12.00
2019-02-21T10:59:31.064Z,12.10
2019-02-21T11:02:08.533Z,12.30
2019-02-21T11:04:54.499Z,12.40
2019-02-21T11:07:23.630Z,12.60
2019-02-21T11:10:01.141Z,12.60
2019-02-21T11:12:38.617Z,12.70
2019-02-21T11:15:16.982Z,12.60
2019-02-21T11:17:54.490Z,12.40
2019-02-21T11:20:31.980Z,12.30
2019-02-21T11:23:09.496Z,12.10
2019-02-21T11:25:47.067Z,11.90
2019-02-21T11:28:24.615Z,11.80
2019-02-21T11:31:02.092Z,11.80
2019-02-21T11:33:39.608Z,11.90
2019-02-21T11:36:26.710Z,11.90
2019-02-21T11:39:04.519Z,12.10
2019-02-21T11:41:42.011Z,12.30
2019-02-21T11:44:19.525Z,12.50
2019-02-21T11:47:03.408Z,12.70
2019-02-21T11:49:40.917Z,12.90
2019-02-21T11:52:18.416Z,13.10
2019-02-21T11:54:55.976Z,13.40
2019-02-21T11:57:33.573Z,13.40
2019-02-21T12:00:15.354Z,13.50
2019-02-21T12:02:52.830Z,13.40
2019-02-21T12:05:37.152Z,13.40
2019-02-21T12:08:14.712Z,13.40
2019-02-21T12:10:52.221Z,13.30
2019-02-21T12:13:29.732Z,13.10
2019-02-21T12:16:16.787Z,13.00
2019-02-21T12:18:54.283Z,13.00
2019-02-21T12:21:31.752Z,12.90
2019-02-21T12:24:09.267Z,13.10
2019-02-21T12:26:46.862Z,13.30
2019-02-21T12:29:24.362Z,13.50
2019-02-21T12:32:01.848Z,14.00
2019-02-21T12:34:39.366Z,14.00
2019-02-21T12:37:38.825Z,13.80
2019-02-21T12:40:19.167Z,13.60
2019-02-21T12:42:56.652Z,13.40
2019-02-21T12:45:59.555Z,13.40
2019-02-21T12:48:37.063Z,13.90
2019-02-21T12:51:14.532Z,14.30
2019-02-21T12:53:52.042Z,14.50
2019-02-21T12:56:29.650Z,14.90
2019-02-21T12:59:07.161Z,15.10
2019-02-21T13:01:44.641Z,15.20
2019-02-21T13:04:22.202Z,15.00
2019-02-21T13:07:28.193Z,14.70
2019-02-21T13:10:05.775Z,14.30
2019-02-21T13:12:43.267Z,14.00
2019-02-21T13:15:20.872Z,13.70
2019-02-21T13:17:58.365Z,13.30
2019-02-21T13:20:35.874Z,13.20
2019-02-21T13:23:13.351Z,13.10
2019-02-21T13:25:50.958Z,13.10
2019-02-21T13:28:28.466Z,13.00
2019-02-21T13:31:05.962Z,13.10
2019-02-21T13:33:43.485Z,13.10
2019-02-21T13:36:27.446Z,13.80
2019-02-21T13:39:05.245Z,14.30
2019-02-21T13:41:42.749Z,14.20
2019-02-21T13:44:20.274Z,14.00
2019-02-21T13:47:07.248Z,14.00
2019-02-21T13:49:44.786Z,14.00
2019-02-21T13:52:22.267Z,14.20
2019-02-21T13:55:03.313Z,14.80
2019-02-21T13:57:40.790Z,15.00
2019-02-21T14:00:20.166Z,15.00
2019-02-21T14:02:57.661Z,15.00
2019-02-21T14:05:48.450Z,14.80
2019-02-21T14:08:25.938Z,14.60
2019-02-21T14:11:03.452Z,14.20
2019-02-21T14:13:40.944Z,13.90
2019-02-21T14:16:25.605Z,13.70
2019-02-21T14:19:03.086Z,13.50
2019-02-21T14:21:40.607Z,13.50
2019-02-21T14:24:18.138Z,13.40
2019-02-21T14:26:55.707Z,13.30
2019-02-21T14:29:39.251Z,13.20
2019-02-21T14:32:10.720Z,13.10
2019-02-21T14:34:48.320Z,13.00
2019-02-21T14:37:25.793Z,13.00
2019-02-21T14:40:03.316Z,13.00
2019-02-21T14:42:40.794Z,13.20
2019-02-21T14:45:19.659Z,13.30
2019-02-21T14:47:57.138Z,13.30
2019-02-21T14:50:36.133Z,13.30
2019-02-21T14:53:12.128Z,13.30
2019-02-21T14:56:40.037Z,13.30
2019-02-21T14:59:19.872Z,13.20
2019-02-21T15:01:55.064Z,13.10
2019-02-21T15:04:38.207Z,13.10
2019-02-21T15:07:13.290Z,13.00
2019-02-21T15:09:50.786Z,13.00
2019-02-21T15:12:28.295Z,12.90
2019-02-21T15:15:06.177Z,12.70
2019-02-21T15:17:43.627Z,12.60
2019-02-21T15:20:21.976Z,12.40
2019-02-21T15:22:59.465Z,12.30
2019-02-21T15:25:37.082Z,12.20
2019-02-21T15:28:14.590Z,12.10
2019-02-21T15:30:52.096Z,12.00
2019-02-21T15:33:31.750Z,11.90
2019-02-21T15:36:19.719Z,11.80
2019-02-21T15:38:57.197Z,11.70
2019-02-21T15:41:34.751Z,11.70
2019-02-21T15:44:12.385Z,11.60
2019-02-21T15:46:49.967Z,11.60
2019-02-21T15:49:27.518Z,11.50
2019-02-21T15:52:05.019Z,11.50
2019-02-21T15:54:49.743Z,11.50
2019-02-21T15:57:27.958Z,11.30
2019-02-21T16:00:05.662Z,11.10
2019-02-21T16:02:43.158Z,11.10
2019-02-21T16:05:20.751Z,11.20
2019-02-21T16:07:58.317Z,11.20
2019-02-21T16:10:35.759Z,11.20
2019-02-21T16:13:13.869Z,11.30
2019-02-21T16:15:51.028Z,11.40
2019-02-21T16:18:28.520Z,11.40
2019-02-21T16:21:06.767Z,11.50
2019-02-21T16:23:44.195Z,11.50
2019-02-21T16:27:16.123Z,11.50
2019-02-21T16:29:53.601Z,11.50
2019-02-21T16:32:31.108Z,11.60
2019-02-21T16:35:12.939Z,11.60
2019-02-21T16:37:50.474Z,11.60
2019-02-21T16:40:28.016Z,11.60
2019-02-21T16:43:05.523Z,11.60
2019-02-21T16:45:46.741Z,11.60
2019-02-21T16:48:20.654Z,11.50
2019-02-21T16:50:58.168Z,11.50
2019-02-21T16:53:35.654Z,11.50
2019-02-21T16:56:17.509Z,11.40
2019-02-21T16:58:55.000Z,11.30
2019-02-21T17:01:32.493Z,11.20
2019-02-21T17:04:13.251Z,11.10
2019-02-21T17:06:50.754Z,11.10
2019-02-21T17:09:28.251Z,11.10
2019-02-21T17:12:05.797Z,11.10
2019-02-21T17:14:46.605Z,11.20
2019-02-21T17:17:24.132Z,11.10
2019-02-21T17:20:01.631Z,11.10
2019-02-21T17:22:39.167Z,11.20
2019-02-21T17:25:23.086Z,11.10
2019-02-21T17:28:00.586Z,11.10
2019-02-21T17:30:38.090Z,11.10
2019-02-21T17:33:15.630Z,11.10
2019-02-21T17:35:59.319Z,11.00
2019-02-21T17:38:36.815Z,11.00
2019-02-21T17:41:14.335Z,11.00
2019-02-21T17:43:55.046Z,11.00
2019-02-21T17:46:32.568Z,11.00
2019-02-21T17:49:10.054Z,11.00
2019-02-21T17:51:47.636Z,11.00
2019-02-21T17:54:29.437Z,11.00
2019-02-21T17:57:06.938Z,11.10
2019-02-21T17:59:44.727Z,11.10
2019-02-21T18:02:22.252Z,11.10
2019-02-21T18:05:00.850Z,11.10
2019-02-21T18:07:38.348Z,11.20
2019-02-21T18:10:16.707Z,11.20
2019-02-21T18:12:54.204Z,11.20
2019-02-21T18:15:31.808Z,11.20
2019-02-21T18:18:09.322Z,11.30
2019-02-21T18:20:46.820Z,11.30
2019-02-21T18:23:24.340Z,11.30
2019-02-21T18:26:17.628Z,11.30
2019-02-21T18:28:55.162Z,11.30
2019-02-21T18:31:32.660Z,11.20
2019-02-21T18:34:10.224Z,11.20
2019-02-21T18:36:47.839Z,11.20
2019-02-21T18:39:25.312Z,11.20
2019-02-21T18:42:02.855Z,11.20
2019-02-21T18:44:40.452Z,11.20
2019-02-21T18:47:17.986Z,11.20
2019-02-21T18:49:55.554Z,11.20
2019-02-21T18:52:33.152Z,11.20
2019-02-21T18:55:27.995Z,11.20
2019-02-21T18:58:05.539Z,11.20
2019-02-21T19:00:43.078Z,11.00
2019-02-21T19:03:20.593Z,10.50
2019-02-21T19:05:58.109Z,10.20
2019-02-21T19:08:35.656Z,10.00
2019-02-21T19:11:13.216Z,9.70
2019-02-21T19:13:50.875Z,9.50
2019-02-21T19:16:28.391Z,9.50
2019-02-21T19:19:07.036Z,9.40
2019-02-21T19:21:44.573Z,9.40
2019-02-21T19:24:23.194Z,9.40
2019-02-21T19:27:02.684Z,9.40
2019-02-21T19:29:41.002Z,9.40
2019-02-21T19:32:19.406Z,9.40
2019-02-21T19:35:00.602Z,9.40
2019-02-21T19:37:38.909Z,9.40
2019-02-21T19:40:18.004Z,9.40
2019-02-21T19:42:59.091Z,9.40
2019-02-21T19:45:41.278Z,9.50
2019-02-21T19:48:22.036Z,9.50
2019-02-21T19:51:00.236Z,9.50
2019-02-21T19:53:38.273Z,9.50
2019-02-21T19:56:16.664Z,9.50
2019-02-21T19:58:55.627Z,9.50
2019-02-21T20:01:34.017Z,9.50
2019-02-21T20:04:12.903Z,9.50
2019-02-21T20:06:52.630Z,9.50
2019-02-21T20:09:33.403Z,9.60
2019-02-21T20:12:11.636Z,9.60
2019-02-21T20:15:18.260Z,9.60
2019-02-21T20:17:57.245Z,9.60
2019-02-21T20:20:35.955Z,9.60
2019-02-21T20:23:14.226Z,9.60
2019-02-21T20:25:53.303Z,9.60
2019-02-21T20:28:31.446Z,9.70
2019-02-21T20:31:10.113Z,9.70
2019-02-21T20:33:48.228Z,9.70
2019-02-21T20:36:26.755Z,9.60
2019-02-21T20:39:04.934Z,9.40
2019-02-21T20:41:43.010Z,9.30
2019-02-21T20:44:27.783Z,9.20
2019-02-21T20:47:08.467Z,9.10
2019-02-21T20:49:47.275Z,9.10
2019-02-21T20:52:24.769Z,9.10
2019-02-21T20:55:05.829Z,9.10
2019-02-21T20:57:44.777Z,9.10
2019-02-21T21:00:22.236Z,9.10
2019-02-21T21:02:59.756Z,9.20
2019-02-21T21:05:37.245Z,9.20
2019-02-21T21:08:14.747Z,9.20
2019-02-21T21:10:52.221Z,9.30
2019-02-21T21:13:36.354Z,9.30
2019-02-21T21:16:13.831Z,9.40
2019-02-21T21:18:51.340Z,9.40
2019-02-21T21:21:28.822Z,9.40
2019-02-21T21:24:23.031Z,9.50
2019-02-21T21:27:00.506Z,9.50
2019-02-21T21:29:38.043Z,9.50
2019-02-21T21:32:15.514Z,9.60
2019-02-21T21:34:56.283Z,9.50
2019-02-21T21:37:33.775Z,9.60
2019-02-21T21:40:13.374Z,9.60
2019-02-21T21:42:50.884Z,9.60
2019-02-21T21:45:28.396Z,9.70
2019-02-21T21:48:06.857Z,9.70
2019-02-21T21:50:44.339Z,9.70
2019-02-21T21:53:21.983Z,9.70
2019-02-21T21:55:59.459Z,9.80
2019-02-21T21:58:36.973Z,9.70
2019-02-21T22:01:14.455Z,9.70
2019-02-21T22:03:55.211Z,9.60
2019-02-21T22:06:32.697Z,9.60
2019-02-21T22:09:10.638Z,9.60
2019-02-21T22:11:48.124Z,9.70
2019-02-21T22:14:32.536Z,9.70
2019-02-21T22:17:10.012Z,9.70
2019-02-21T22:19:47.512Z,9.70
2019-02-21T22:22:24.987Z,9.70
2019-02-21T22:25:05.906Z,9.70
2019-02-21T22:27:43.385Z,9.80
2019-02-21T22:30:21.021Z,9.80
2019-02-21T22:33:05.016Z,9.80
2019-02-21T22:35:42.491Z,9.80
2019-02-21T22:38:19.987Z,9.80
2019-02-21T22:40:57.489Z,9.80
2019-02-21T22:43:35.086Z,9.80
2019-02-21T22:46:12.585Z,9.80
2019-02-21T22:48:50.083Z,9.70
2019-02-21T22:51:27.567Z,9.50
2019-02-21T22:54:05.160Z,9.30
2019-02-21T22:56:42.638Z,9.20
2019-02-21T22:59:20.143Z,9.10
2019-02-21T23:01:58.273Z,9.00
2019-02-21T23:05:16.198Z,8.90
2019-02-21T23:08:13.175Z,8.80
2019-02-21T23:10:50.676Z,8.80
2019-02-21T23:13:35.397Z,8.80
2019-02-21T23:16:12.873Z,8.80
2019-02-21T23:18:50.385Z,8.90
2019-02-21T23:21:27.876Z,8.80
2019-02-21T23:24:18.558Z,8.90
2019-02-21T23:26:56.030Z,8.90
2019-02-21T23:29:33.556Z,8.90
2019-02-21T23:32:11.073Z,8.90
2019-02-21T23:34:59.760Z,8.90
2019-02-21T23:37:37.240Z,9.00
2019-02-21T23:40:14.740Z,9.00
2019-02-21T23:42:59.144Z,9.00
2019-02-21T23:45:36.678Z,9.00
2019-02-21T23:48:14.175Z,9.00
2019-02-21T23:50:51.676Z,9.00
2019-02-21T23:53:29.268Z,9.00
2019-02-21T23:56:06.768Z,9.00
2019-02-21T23:58:44.289Z,9.10
